Архив погоды в Донецке за Декабрь, 2018 год

icon
Год:Все200220032004200520062007200820092010201120122013201420152016201720182019
Месяц:ЯнварьФевральМартАпрельМайИюньИюльАвгустСентябрьОктябрьНоябрьДекабрь
Дата Облачность Температура (д/н), °C Давление, мм Влажность, % Ветер, м/с
01.12.2018 Облачность пасмурно -3 / -1 742 97 В, 5
02.12.2018 Облачность пасмурно -4 / -8 744 93 З, 1
03.12.2018 Облачность пасмурно -2 / -3 744 98 В, 1
04.12.2018 Облачность пасмурно -2 / -1 742 100 В, 2
05.12.2018 Облачность пасмурно +1 / +0 737 100 В, 3
06.12.2018 Облачность дождь +1 / +0 737 100 С, 2
07.12.2018 Облачность пасмурно -1 / -3 737 96 С-З, 1
08.12.2018 Облачность пасмурно -2 / -2 740 90 З, 2
09.12.2018 Облачность пасмурно +2 / +2 737 89 Ю-В, 4
10.12.2018 Облачность дождь +1 / +1 731 96 В, 3
11.12.2018 Облачность дождь +1 / +2 731 100 В, 4
12.12.2018 Облачность снег +1 / +0 730 98 Ю-З, 5
13.12.2018 Облачность пасмурно +2 / -2 739 80 Ю, 4
14.12.2018 Облачность пасмурно +1 / -1 742 90 С-В, 1
15.12.2018 Облачность пасмурно -1 / -3 746 93 С-З, 1
16.12.2018 Облачность пасмурно -4 / -5 749 81 В, 6
17.12.2018 Облачность пасмурно -4 / -6 745 83 В, 7
18.12.2018 Облачность снег -6 / -5 746 95 В, 5
19.12.2018 Облачность пасмурно -3 / -3 746 90 В, 4
20.12.2018 Облачность снег -3 / -2 746 95 В, 2
21.12.2018 Облачность снег -3 / -2 746 97 нет
22.12.2018 Облачность пасмурно +0 / +2 739 100 Ю, 2
23.12.2018 Облачность пасмурно +5 / +0 731 100 Ю-З, 3
24.12.2018 Облачность пасмурно +0 / +0 736 75 Ю-З, 4
25.12.2018 Облачность пасмурно -1 / -4 728 93 Ю-З, 6
26.12.2018 Облачность снег -4 / -2 736 93 З, 4
27.12.2018 Облачность пасмурно -1 / -8 732 93 С-З, 3
28.12.2018 Облачность снег -4 / -1 739 87 Ю, 3
29.12.2018 Облачность пасмурно -2 / -5 738 98 В, 2
30.12.2018 Облачность снег -5 / -5 740 93 С-В, 4
31.12.2018 Облачность пасмурно -3 / -7 743 85 С, 1
icon
Облачность:пасмурно пасмурно
Темп. днем:-4..-2 °C
Темп. ночью:-8..-6 °C
Давление:743 мм
Влажность:85 %
Ветер:С, 1 м/с
icon
USDusd25,64(-0,17223)
RUBrub0,41(-0,00346)
EUReur28,76(-0,22156)
icon
Вт. 23 Июль 2019
icon
Логин:
Код: ---
 
Реклама
icon